createdAt,value
2019-05-18T00:01:14.957Z,41.90
2019-05-18T00:03:43.409Z,34.73
2019-05-18T00:06:11.841Z,38.97
2019-05-18T00:08:40.339Z,36.03
2019-05-18T00:11:08.800Z,34.43
2019-05-18T00:13:37.262Z,40.20
2019-05-18T00:16:05.743Z,40.50
2019-05-18T00:18:34.221Z,40.90
2019-05-18T00:21:02.694Z,41.30
2019-05-18T00:23:31.169Z,42.17
2019-05-18T00:25:59.609Z,39.20
2019-05-18T00:28:28.053Z,39.00
2019-05-18T00:30:56.553Z,38.17
2019-05-18T00:33:25.048Z,39.10
2019-05-18T00:35:53.478Z,38.13
2019-05-18T00:38:21.977Z,38.87
2019-05-18T00:40:50.423Z,41.23
2019-05-18T00:43:18.892Z,37.00
2019-05-18T00:45:47.391Z,34.53
2019-05-18T00:48:15.833Z,36.67
2019-05-18T00:50:44.354Z,40.40
2019-05-18T00:53:12.832Z,38.33
2019-05-18T00:55:41.527Z,41.10
2019-05-18T00:58:10.060Z,38.70
2019-05-18T01:00:38.601Z,37.63
2019-05-18T01:03:07.025Z,38.30
2019-05-18T01:05:37.988Z,40.50
2019-05-18T01:08:05.641Z,37.37
2019-05-18T01:10:34.072Z,36.20
2019-05-18T01:13:02.637Z,38.47
2019-05-18T01:15:31.075Z,42.87
2019-05-18T01:18:02.149Z,41.07
2019-05-18T01:20:29.653Z,41.97
2019-05-18T01:22:58.102Z,41.43
2019-05-18T01:25:26.658Z,41.73
2019-05-18T01:27:55.108Z,37.60
2019-05-18T01:30:23.564Z,38.90
2019-05-18T01:32:52.049Z,41.13
2019-05-18T01:35:20.577Z,41.70
2019-05-18T01:37:49.001Z,42.03
2019-05-18T01:40:17.905Z,42.37
2019-05-18T01:42:46.404Z,41.70
2019-05-18T01:45:17.317Z,43.43
2019-05-18T01:47:45.018Z,41.10
2019-05-18T01:50:14.590Z,37.07
2019-05-18T01:52:43.033Z,41.43
2019-05-18T01:55:11.477Z,41.97
2019-05-18T01:57:40.046Z,42.13
2019-05-18T02:00:08.887Z,40.50
2019-05-18T02:02:37.392Z,41.27
2019-05-18T02:05:06.204Z,41.20
2019-05-18T02:07:34.705Z,40.60
2019-05-18T02:10:03.527Z,39.80
2019-05-18T02:12:31.992Z,42.20
2019-05-18T02:15:00.522Z,43.10
2019-05-18T02:17:28.964Z,40.77
2019-05-18T02:19:57.413Z,43.00
2019-05-18T02:22:25.904Z,40.47
2019-05-18T02:24:54.342Z,46.20
2019-05-18T02:27:22.785Z,41.60
2019-05-18T02:29:51.295Z,46.67
2019-05-18T02:32:19.732Z,41.30
2019-05-18T02:34:48.182Z,44.23
2019-05-18T02:37:16.747Z,45.27
2019-05-18T02:39:45.230Z,45.23
2019-05-18T02:42:13.628Z,46.37
2019-05-18T02:44:42.131Z,44.93
2019-05-18T02:47:10.570Z,47.60
2019-05-18T02:49:39.025Z,43.10
2019-05-18T02:52:07.529Z,46.17
2019-05-18T02:54:35.961Z,48.00
2019-05-18T02:57:04.470Z,43.40
2019-05-18T02:59:32.962Z,41.73
2019-05-18T03:02:01.449Z,46.33
2019-05-18T03:04:29.911Z,50.13
2019-05-18T03:06:58.514Z,47.80
2019-05-18T03:09:27.069Z,48.33
2019-05-18T03:11:55.521Z,43.83
2019-05-18T03:14:23.967Z,45.97
2019-05-18T03:16:52.454Z,45.57
2019-05-18T03:19:20.895Z,46.73
2019-05-18T03:21:49.388Z,42.87
2019-05-18T03:24:17.835Z,48.67
2019-05-18T03:26:46.276Z,48.37
2019-05-18T03:29:15.032Z,46.13
2019-05-18T03:31:43.561Z,44.10
2019-05-18T03:34:12.105Z,40.43
2019-05-18T03:36:40.524Z,46.13
2019-05-18T03:39:09.019Z,46.67
2019-05-18T03:41:37.457Z,48.00
2019-05-18T03:44:05.935Z,47.23
2019-05-18T03:46:34.418Z,41.47
2019-05-18T03:49:02.888Z,45.37
2019-05-18T03:51:31.301Z,45.93
2019-05-18T03:53:59.799Z,47.80
2019-05-18T03:56:28.236Z,46.20
2019-05-18T03:58:56.681Z,47.40
2019-05-18T04:01:25.225Z,46.17
2019-05-18T04:03:53.674Z,42.83
2019-05-18T04:06:22.168Z,44.67
2019-05-18T04:08:50.613Z,44.27
2019-05-18T04:11:19.064Z,45.93
2019-05-18T04:13:47.550Z,47.20
2019-05-18T04:16:16.008Z,44.90
2019-05-18T04:18:44.506Z,46.90
2019-05-18T04:21:12.957Z,47.73
2019-05-18T04:23:41.459Z,42.00
2019-05-18T04:26:09.942Z,41.70
2019-05-18T04:28:38.390Z,45.37
2019-05-18T04:31:06.846Z,45.57
2019-05-18T04:33:35.342Z,40.97
2019-05-18T04:36:03.778Z,40.50
2019-05-18T04:38:32.278Z,44.60
2019-05-18T04:41:00.716Z,43.67
2019-05-18T04:43:29.169Z,45.47
2019-05-18T04:45:57.662Z,44.23
2019-05-18T04:48:26.106Z,47.37
2019-05-18T04:50:54.614Z,43.23
2019-05-18T04:53:23.153Z,42.53
2019-05-18T04:55:51.674Z,43.53
2019-05-18T04:58:20.114Z,43.70
2019-05-18T05:00:48.610Z,44.37
2019-05-18T05:03:17.096Z,43.13
2019-05-18T05:05:45.548Z,42.47
2019-05-18T05:08:14.024Z,43.60
2019-05-18T05:10:42.503Z,44.63
2019-05-18T05:13:10.925Z,45.80
2019-05-18T05:15:39.420Z,40.93
2019-05-18T05:18:07.865Z,46.93
2019-05-18T05:20:36.309Z,46.17
2019-05-18T05:23:04.897Z,39.77
2019-05-18T05:25:33.332Z,45.90
2019-05-18T05:28:01.781Z,45.23
2019-05-18T05:30:30.269Z,45.57
2019-05-18T05:32:58.718Z,45.87
2019-05-18T05:35:27.169Z,36.10
2019-05-18T05:37:55.665Z,46.90
2019-05-18T05:40:24.117Z,45.33
2019-05-18T05:42:52.568Z,44.97
2019-05-18T05:45:21.059Z,43.70
2019-05-18T05:47:49.556Z,44.43
2019-05-18T05:50:18.096Z,44.47
2019-05-18T05:52:46.532Z,45.03
2019-05-18T05:55:15.298Z,46.53
2019-05-18T05:57:43.746Z,45.50
2019-05-18T06:00:12.245Z,48.63
2019-05-18T06:02:40.698Z,44.07
2019-05-18T06:05:09.214Z,46.83
2019-05-18T06:07:37.713Z,44.60
2019-05-18T06:10:06.599Z,48.53
2019-05-18T06:12:35.049Z,48.33
2019-05-18T06:15:05.125Z,46.23
2019-05-18T06:17:33.583Z,47.97
2019-05-18T06:20:02.090Z,48.13
2019-05-18T06:22:30.674Z,48.70
2019-05-18T06:24:59.112Z,45.53
2019-05-18T06:27:27.553Z,46.40
2019-05-18T06:29:56.005Z,46.67
2019-05-18T06:32:24.589Z,47.63
2019-05-18T06:34:53.033Z,48.73
2019-05-18T06:37:21.557Z,46.73
2019-05-18T06:39:50.124Z,45.43
2019-05-18T06:42:18.686Z,51.07
2019-05-18T06:44:47.201Z,48.77
2019-05-18T06:47:15.856Z,49.53
2019-05-18T06:49:44.309Z,48.30
2019-05-18T06:52:12.902Z,48.13
2019-05-18T06:54:41.389Z,47.67
2019-05-18T06:57:09.890Z,47.40
2019-05-18T06:59:38.406Z,49.73
2019-05-18T07:02:06.900Z,51.87
2019-05-18T07:04:35.341Z,47.87
2019-05-18T07:07:03.925Z,51.20
2019-05-18T07:09:32.369Z,47.33
2019-05-18T07:12:00.808Z,50.67
2019-05-18T07:14:29.388Z,50.40
2019-05-18T07:16:57.856Z,47.00
2019-05-18T07:19:26.310Z,48.57
2019-05-18T07:21:55.072Z,51.23
2019-05-18T07:24:23.630Z,46.80
2019-05-18T07:26:52.077Z,47.40
2019-05-18T07:29:20.520Z,48.80
2019-05-18T07:31:49.025Z,46.57
2019-05-18T07:34:17.470Z,48.70
2019-05-18T07:36:45.918Z,48.57
2019-05-18T07:39:14.555Z,49.83
2019-05-18T07:41:46.941Z,46.93
2019-05-18T07:44:14.951Z,47.63
2019-05-18T07:46:43.521Z,46.83
2019-05-18T07:49:12.037Z,49.80
2019-05-18T07:51:42.372Z,52.90
2019-05-18T07:54:10.943Z,47.17
2019-05-18T07:56:39.449Z,51.20
2019-05-18T07:59:07.897Z,50.97
2019-05-18T08:01:37.416Z,47.17
2019-05-18T08:04:05.887Z,49.70
2019-05-18T08:06:34.334Z,49.50
2019-05-18T08:09:02.986Z,50.67
2019-05-18T08:11:32.428Z,47.63
2019-05-18T08:14:00.891Z,49.07
2019-05-18T08:16:29.512Z,49.37
2019-05-18T08:18:58.324Z,49.77
2019-05-18T08:21:26.860Z,51.43
2019-05-18T08:23:55.405Z,52.00
2019-05-18T08:26:23.849Z,50.00
2019-05-18T08:28:52.349Z,48.80
2019-05-18T08:31:20.864Z,50.60
2019-05-18T08:33:49.316Z,50.73
2019-05-18T08:36:17.805Z,47.23
2019-05-18T08:38:46.322Z,48.60
2019-05-18T08:41:14.773Z,46.50
2019-05-18T08:43:43.261Z,45.93
2019-05-18T08:46:11.705Z,46.67
2019-05-18T08:48:40.197Z,46.87
2019-05-18T08:51:08.693Z,43.53
2019-05-18T08:53:37.248Z,46.40
2019-05-18T08:56:05.659Z,43.80
2019-05-18T08:58:34.142Z,45.17
2019-05-18T09:01:02.593Z,44.90
2019-05-18T09:03:31.084Z,48.20
2019-05-18T09:05:59.568Z,44.77
2019-05-18T09:08:28.014Z,42.77
2019-05-18T09:10:56.495Z,42.40
2019-05-18T09:13:24.977Z,39.77
2019-05-18T09:15:53.446Z,42.20
2019-05-18T09:18:21.874Z,41.33
2019-05-18T09:20:50.364Z,42.80
2019-05-18T09:23:18.815Z,42.33
2019-05-18T09:25:47.436Z,41.40
2019-05-18T09:28:15.987Z,43.87
2019-05-18T09:30:44.849Z,41.33
2019-05-18T09:33:13.298Z,41.87
2019-05-18T09:35:41.745Z,40.67
2019-05-18T09:38:10.322Z,42.73
2019-05-18T09:40:38.773Z,44.47
2019-05-18T09:43:07.240Z,44.83
2019-05-18T09:45:35.764Z,44.50
2019-05-18T09:48:04.589Z,42.27
2019-05-18T09:50:33.264Z,45.67
2019-05-18T09:53:01.950Z,45.00
2019-05-18T09:55:31.620Z,44.70
2019-05-18T09:58:00.166Z,43.70
2019-05-18T10:00:28.760Z,44.27
2019-05-18T10:02:57.277Z,46.13
2019-05-18T10:05:25.750Z,44.43
2019-05-18T10:07:54.268Z,45.93
2019-05-18T10:10:22.764Z,47.97
2019-05-18T10:12:51.226Z,51.00
2019-05-18T10:15:19.673Z,47.47
2019-05-18T10:17:48.274Z,49.53
2019-05-18T10:20:16.730Z,50.17
2019-05-18T10:22:55.609Z,50.67
2019-05-18T10:25:17.020Z,49.93
2019-05-18T10:27:45.470Z,50.03
2019-05-18T10:30:14.035Z,48.17
2019-05-18T10:32:42.549Z,47.20
2019-05-18T10:35:11.001Z,47.03
2019-05-18T10:37:39.442Z,48.03
2019-05-18T10:40:09.233Z,49.20
2019-05-18T10:42:37.697Z,48.53
2019-05-18T10:45:08.191Z,50.43
2019-05-18T10:47:36.693Z,49.80
2019-05-18T10:50:06.381Z,51.60
2019-05-18T10:52:34.829Z,50.03
2019-05-18T10:55:04.102Z,56.17
2019-05-18T10:57:32.550Z,54.73
2019-05-18T11:00:01.006Z,53.80
2019-05-18T11:02:29.507Z,54.90
2019-05-18T11:04:57.949Z,55.23
2019-05-18T11:07:32.478Z,51.80
2019-05-18T11:10:01.031Z,54.87
2019-05-18T11:12:29.481Z,56.37
2019-05-18T11:14:58.043Z,57.80
2019-05-18T11:17:26.486Z,57.67
2019-05-18T11:19:54.984Z,56.60
2019-05-18T11:22:23.433Z,61.33
2019-05-18T11:24:51.878Z,58.93
2019-05-18T11:27:20.442Z,59.43
2019-05-18T11:29:48.889Z,58.70
2019-05-18T11:32:17.343Z,58.57
2019-05-18T11:34:45.833Z,58.73
2019-05-18T11:37:14.363Z,62.07
2019-05-18T11:39:42.849Z,59.97
2019-05-18T11:42:11.399Z,59.57
2019-05-18T11:44:39.894Z,60.50
2019-05-18T11:47:08.363Z,62.60
2019-05-18T11:49:36.946Z,59.80
2019-05-18T11:52:05.391Z,62.87
2019-05-18T11:54:33.829Z,59.10
2019-05-18T11:57:02.330Z,60.67
2019-05-18T11:59:30.765Z,59.57
2019-05-18T12:01:59.338Z,61.17
2019-05-18T12:04:27.787Z,60.70
2019-05-18T12:06:56.243Z,62.63
2019-05-18T12:09:24.793Z,59.00
2019-05-18T12:11:53.234Z,59.73
2019-05-18T12:14:21.689Z,60.33
2019-05-18T12:16:50.252Z,59.57
2019-05-18T12:19:18.697Z,58.33
2019-05-18T12:21:47.262Z,56.40
2019-05-18T12:24:16.144Z,57.43
2019-05-18T12:26:44.804Z,57.97
2019-05-18T12:29:13.285Z,56.97
2019-05-18T12:31:41.733Z,56.33
2019-05-18T12:34:10.181Z,56.27
2019-05-18T12:36:38.700Z,54.17
2019-05-18T12:39:07.181Z,53.10
2019-05-18T12:41:35.617Z,57.97
2019-05-18T12:44:04.177Z,56.60
2019-05-18T12:46:32.642Z,57.03
2019-05-18T12:49:01.182Z,56.77
2019-05-18T12:51:29.759Z,56.67
2019-05-18T12:53:58.307Z,56.77
2019-05-18T12:56:26.820Z,61.07
2019-05-18T12:58:55.253Z,58.97
2019-05-18T13:01:23.754Z,59.87
2019-05-18T13:03:52.186Z,62.00
2019-05-18T13:06:20.729Z,60.50
2019-05-18T13:08:49.190Z,59.83
2019-05-18T13:11:17.635Z,60.70
2019-05-18T13:13:46.226Z,61.40
2019-05-18T13:16:14.681Z,59.33
2019-05-18T13:18:43.162Z,58.17
2019-05-18T13:21:11.614Z,61.13
2019-05-18T13:23:40.109Z,58.70
2019-05-18T13:26:08.604Z,60.40
2019-05-18T13:28:37.049Z,57.80
2019-05-18T13:31:05.553Z,60.93
2019-05-18T13:33:34.037Z,61.70
2019-05-18T13:36:02.573Z,58.47
2019-05-18T13:38:31.016Z,59.67
2019-05-18T13:40:59.461Z,63.07
2019-05-18T13:43:28.031Z,63.03
2019-05-18T13:45:56.561Z,61.83
2019-05-18T13:48:25.008Z,63.67
2019-05-18T13:50:53.556Z,63.37
2019-05-18T13:53:21.945Z,63.27
2019-05-18T13:55:50.452Z,62.33
2019-05-18T13:58:18.906Z,58.30
2019-05-18T14:00:47.355Z,61.87
2019-05-18T14:03:15.850Z,62.13
2019-05-18T14:05:44.295Z,63.13
2019-05-18T14:08:15.653Z,62.90
2019-05-18T14:10:42.970Z,63.63
2019-05-18T14:13:11.421Z,62.90
2019-05-18T14:15:40.001Z,65.03
2019-05-18T14:18:08.449Z,63.60
2019-05-18T14:20:36.905Z,61.53
2019-05-18T14:23:05.421Z,64.23
2019-05-18T14:25:33.864Z,60.53
2019-05-18T14:28:02.409Z,63.43
2019-05-18T14:30:30.959Z,62.97
2019-05-18T14:32:59.446Z,64.33
2019-05-18T14:35:27.982Z,62.40
2019-05-18T14:37:56.687Z,63.33
2019-05-18T14:40:25.328Z,61.93
2019-05-18T14:42:53.923Z,64.93
2019-05-18T14:45:22.419Z,60.93
2019-05-18T14:47:50.880Z,59.20
2019-05-18T14:50:21.276Z,63.30
2019-05-18T14:52:49.762Z,57.80
2019-05-18T14:55:25.875Z,59.53
2019-05-18T14:57:48.333Z,57.47
2019-05-18T15:00:18.131Z,59.87
2019-05-18T15:02:46.625Z,56.67
2019-05-18T15:05:15.082Z,57.80
2019-05-18T15:07:44.467Z,59.40
2019-05-18T15:10:13.144Z,56.00
2019-05-18T15:12:41.598Z,55.07
2019-05-18T15:15:10.177Z,56.33
2019-05-18T15:17:38.646Z,57.57
2019-05-18T15:20:07.977Z,57.23
2019-05-18T15:22:36.562Z,59.60
2019-05-18T15:25:05.281Z,57.03
2019-05-18T15:27:33.793Z,56.80
2019-05-18T15:30:02.342Z,59.00
2019-05-18T15:32:30.869Z,57.63
2019-05-18T15:34:59.322Z,60.93
2019-05-18T15:37:27.800Z,58.30
2019-05-18T15:39:56.253Z,57.50
2019-05-18T15:42:24.757Z,63.33
2019-05-18T15:44:53.269Z,58.30
2019-05-18T15:47:21.720Z,57.30
2019-05-18T15:49:50.172Z,58.33
2019-05-18T15:52:18.697Z,60.47
2019-05-18T15:54:47.160Z,58.70
2019-05-18T15:57:15.689Z,59.27
2019-05-18T15:59:44.178Z,59.20
2019-05-18T16:02:12.736Z,58.60
2019-05-18T16:04:41.252Z,58.13
2019-05-18T16:07:09.744Z,60.80
2019-05-18T16:09:38.201Z,58.60
2019-05-18T16:12:06.692Z,60.77
2019-05-18T16:14:36.166Z,58.20
2019-05-18T16:17:04.958Z,61.33
2019-05-18T16:19:35.228Z,57.63
2019-05-18T16:22:03.978Z,58.67
2019-05-18T16:24:32.545Z,58.70
2019-05-18T16:27:01.160Z,56.77
2019-05-18T16:29:29.605Z,57.57
2019-05-18T16:31:58.200Z,57.17
2019-05-18T16:34:26.677Z,58.23
2019-05-18T16:36:55.130Z,55.73
2019-05-18T16:39:23.637Z,55.10
2019-05-18T16:41:52.161Z,56.93
2019-05-18T16:44:20.697Z,59.63
2019-05-18T16:46:49.148Z,55.27
2019-05-18T16:49:17.705Z,56.73
2019-05-18T16:51:46.269Z,58.57
2019-05-18T16:54:14.725Z,56.27
2019-05-18T16:56:43.172Z,59.20
2019-05-18T16:59:11.805Z,59.73
2019-05-18T17:01:40.301Z,59.93
2019-05-18T17:04:08.804Z,60.30
2019-05-18T17:06:37.350Z,61.67
2019-05-18T17:09:06.174Z,62.53
2019-05-18T17:11:34.614Z,60.23
2019-05-18T17:14:03.390Z,60.80
2019-05-18T17:16:32.209Z,59.87
2019-05-18T17:19:00.664Z,58.67
2019-05-18T17:21:29.206Z,59.50
2019-05-18T17:23:57.652Z,58.43
2019-05-18T17:26:26.111Z,57.10
2019-05-18T17:28:55.946Z,58.77
2019-05-18T17:31:24.466Z,53.97
2019-05-18T17:33:52.956Z,56.17
2019-05-18T17:36:21.526Z,56.90
2019-05-18T17:38:50.093Z,58.47
2019-05-18T17:41:18.612Z,57.83
2019-05-18T17:43:47.141Z,54.30
2019-05-18T17:46:15.668Z,55.10
2019-05-18T17:48:44.290Z,56.23
2019-05-18T17:51:12.777Z,54.80
2019-05-18T17:53:41.235Z,53.77
2019-05-18T17:56:09.725Z,54.00
2019-05-18T17:58:38.229Z,52.47
2019-05-18T18:01:06.845Z,53.40
2019-05-18T18:03:35.362Z,52.87
2019-05-18T18:06:03.935Z,52.30
2019-05-18T18:08:32.369Z,53.57
2019-05-18T18:11:00.929Z,50.73
2019-05-18T18:13:29.429Z,51.47
2019-05-18T18:15:57.973Z,56.20
2019-05-18T18:18:26.592Z,53.17
2019-05-18T18:20:55.099Z,53.37
2019-05-18T18:23:23.701Z,51.07
2019-05-18T18:25:52.188Z,54.67
2019-05-18T18:28:20.763Z,53.03
2019-05-18T18:30:49.396Z,55.20
2019-05-18T18:33:18.001Z,54.03
2019-05-18T18:35:46.538Z,55.83
2019-05-18T18:38:14.992Z,55.33
2019-05-18T18:40:43.797Z,55.37
2019-05-18T18:43:12.256Z,53.40
2019-05-18T18:45:40.791Z,55.70
2019-05-18T18:48:09.384Z,55.63
2019-05-18T18:50:37.843Z,54.97
2019-05-18T18:53:06.341Z,52.57
2019-05-18T18:55:34.776Z,52.30
2019-05-18T18:58:03.248Z,53.47
2019-05-18T19:00:31.815Z,51.17
2019-05-18T19:03:00.275Z,51.27
2019-05-18T19:05:28.801Z,51.70
2019-05-18T19:07:57.277Z,54.10
2019-05-18T19:10:25.837Z,54.47
2019-05-18T19:12:54.389Z,54.77
2019-05-18T19:15:22.885Z,55.27
2019-05-18T19:17:51.460Z,52.40
2019-05-18T19:20:19.907Z,52.90
2019-05-18T19:22:48.357Z,49.97
2019-05-18T19:25:17.004Z,51.87
2019-05-18T19:27:54.575Z,51.20
2019-05-18T19:30:16.214Z,50.40
2019-05-18T19:32:44.725Z,51.40
2019-05-18T19:35:14.893Z,53.47
2019-05-18T19:37:43.335Z,50.77
2019-05-18T19:40:12.177Z,49.70
2019-05-18T19:42:40.665Z,49.63
2019-05-18T19:45:09.199Z,51.93
2019-05-18T19:47:37.659Z,49.70
2019-05-18T19:50:06.673Z,49.70
2019-05-18T19:52:35.342Z,50.90
2019-05-18T19:55:05.235Z,51.83
2019-05-18T19:57:33.690Z,50.67
2019-05-18T20:00:02.325Z,48.67
2019-05-18T20:02:31.420Z,50.43
2019-05-18T20:05:07.613Z,51.53
2019-05-18T20:07:30.042Z,50.47
2019-05-18T20:09:58.630Z,50.17
2019-05-18T20:12:27.081Z,50.60
2019-05-18T20:14:55.535Z,47.47
2019-05-18T20:17:24.187Z,46.03
2019-05-18T20:19:52.624Z,48.80
2019-05-18T20:22:21.075Z,47.20
2019-05-18T20:24:49.565Z,47.47
2019-05-18T20:27:18.045Z,49.90
2019-05-18T20:29:46.524Z,47.17
2019-05-18T20:32:15.041Z,47.30
2019-05-18T20:34:43.611Z,45.97
2019-05-18T20:37:12.128Z,49.13
2019-05-18T20:39:40.585Z,46.67
2019-05-18T20:42:09.032Z,47.07
2019-05-18T20:44:37.557Z,50.90
2019-05-18T20:47:06.004Z,48.20
2019-05-18T20:49:34.512Z,48.73
2019-05-18T20:52:03.018Z,50.20
2019-05-18T20:54:31.461Z,47.63
2019-05-18T20:56:59.910Z,48.20
2019-05-18T20:59:28.421Z,48.03
2019-05-18T21:01:56.869Z,47.87
2019-05-18T21:04:25.319Z,47.73
2019-05-18T21:06:53.813Z,48.60
2019-05-18T21:09:22.371Z,49.20
2019-05-18T21:11:51.193Z,48.03
2019-05-18T21:14:19.673Z,50.33
2019-05-18T21:16:48.257Z,51.03
2019-05-18T21:19:16.709Z,51.07
2019-05-18T21:22:03.685Z,47.73
2019-05-18T21:24:32.201Z,46.50
2019-05-18T21:27:00.644Z,47.33
2019-05-18T21:29:29.209Z,44.80
2019-05-18T21:31:57.657Z,45.10
2019-05-18T21:34:26.100Z,47.47
2019-05-18T21:36:54.669Z,46.17
2019-05-18T21:39:23.115Z,46.37
2019-05-18T21:41:51.577Z,47.40
2019-05-18T21:44:20.062Z,45.33
2019-05-18T21:46:48.508Z,48.67
2019-05-18T21:49:16.961Z,48.07
2019-05-18T21:51:45.470Z,49.80
2019-05-18T21:54:13.892Z,49.60
2019-05-18T21:56:42.341Z,50.80
2019-05-18T21:59:12.405Z,49.60
2019-05-18T22:01:41.232Z,53.17
2019-05-18T22:04:09.694Z,53.17
2019-05-18T22:06:38.195Z,52.10
2019-05-18T22:09:06.809Z,54.57
2019-05-18T22:11:35.529Z,54.83
2019-05-18T22:14:05.066Z,54.33
2019-05-18T22:16:33.565Z,51.60
2019-05-18T22:19:02.030Z,55.70
2019-05-18T22:21:30.468Z,55.70
2019-05-18T22:23:58.965Z,57.50
2019-05-18T22:26:27.422Z,55.37
2019-05-18T22:28:55.866Z,53.23
2019-05-18T22:31:24.451Z,56.57
2019-05-18T22:33:52.896Z,55.87
2019-05-18T22:36:21.354Z,57.47
2019-05-18T22:38:49.927Z,57.60
2019-05-18T22:41:18.408Z,57.03
2019-05-18T22:43:46.861Z,56.30
2019-05-18T22:46:15.315Z,59.93
2019-05-18T22:48:43.829Z,58.20
2019-05-18T22:51:12.287Z,60.93
2019-05-18T22:53:40.739Z,57.63
2019-05-18T22:56:09.234Z,60.10
2019-05-18T22:58:37.689Z,59.57
2019-05-18T23:01:06.208Z,60.07
2019-05-18T23:03:34.770Z,59.83
2019-05-18T23:06:03.222Z,57.23
2019-05-18T23:08:31.676Z,59.07
2019-05-18T23:11:00.164Z,59.83
2019-05-18T23:13:28.617Z,59.93
2019-05-18T23:15:57.114Z,59.17
2019-05-18T23:18:25.631Z,58.67
2019-05-18T23:20:54.046Z,59.63
2019-05-18T23:23:22.513Z,60.33
2019-05-18T23:25:51.005Z,60.73
2019-05-18T23:28:19.412Z,58.00
2019-05-18T23:30:47.909Z,56.07
2019-05-18T23:33:16.365Z,62.03
2019-05-18T23:35:44.804Z,62.93
2019-05-18T23:38:13.305Z,59.83
2019-05-18T23:40:41.759Z,59.33
2019-05-18T23:43:10.209Z,61.57
2019-05-18T23:45:38.717Z,60.27
2019-05-18T23:48:07.196Z,62.07
2019-05-18T23:50:35.623Z,58.77
2019-05-18T23:53:04.128Z,60.07
2019-05-18T23:55:33.157Z,57.30
2019-05-18T23:58:05.904Z,58.50
